sensor_id;sensor_type;location;lat;lon;timestamp;temperature;humidity
40702;DHT22;26387;50.114;8.662;2023-02-28T00:02:10;5.00;64.40
40702;DHT22;26387;50.114;8.662;2023-02-28T00:04:35;5.00;64.60
40702;DHT22;26387;50.114;8.662;2023-02-28T00:07:01;5.00;64.80
40702;DHT22;26387;50.114;8.662;2023-02-28T00:09:26;5.00;65.00
40702;DHT22;26387;50.114;8.662;2023-02-28T00:11:52;4.90;65.10
40702;DHT22;26387;50.114;8.662;2023-02-28T00:14:17;4.90;65.20
40702;DHT22;26387;50.114;8.662;2023-02-28T00:16:43;4.90;65.60
40702;DHT22;26387;50.114;8.662;2023-02-28T00:19:08;4.90;65.90
40702;DHT22;26387;50.114;8.662;2023-02-28T00:21:34;4.80;66.50
40702;DHT22;26387;50.114;8.662;2023-02-28T00:24:00;4.80;67.00
40702;DHT22;26387;50.114;8.662;2023-02-28T00:26:26;4.80;67.20
40702;DHT22;26387;50.114;8.662;2023-02-28T00:28:52;4.80;67.70
40702;DHT22;26387;50.114;8.662;2023-02-28T00:31:18;4.70;67.60
40702;DHT22;26387;50.114;8.662;2023-02-28T00:33:43;4.70;67.80
40702;DHT22;26387;50.114;8.662;2023-02-28T00:36:09;4.70;68.00
40702;DHT22;26387;50.114;8.662;2023-02-28T00:38:35;4.70;68.10
40702;DHT22;26387;50.114;8.662;2023-02-28T00:41:01;4.70;68.40
40702;DHT22;26387;50.114;8.662;2023-02-28T00:43:30;4.70;68.50
40702;DHT22;26387;50.114;8.662;2023-02-28T00:45:55;4.70;68.50
40702;DHT22;26387;50.114;8.662;2023-02-28T00:48:21;4.60;68.70
40702;DHT22;26387;50.114;8.662;2023-02-28T00:50:48;4.60;68.80
40702;DHT22;26387;50.114;8.662;2023-02-28T00:53:13;4.70;68.90
40702;DHT22;26387;50.114;8.662;2023-02-28T00:55:39;4.60;69.70
40702;DHT22;26387;50.114;8.662;2023-02-28T00:58:04;4.60;69.30
40702;DHT22;26387;50.114;8.662;2023-02-28T01:00:30;4.60;69.40
40702;DHT22;26387;50.114;8.662;2023-02-28T01:02:55;4.60;69.70
40702;DHT22;26387;50.114;8.662;2023-02-28T01:05:21;4.50;69.90
40702;DHT22;26387;50.114;8.662;2023-02-28T01:07:46;4.50;70.50
40702;DHT22;26387;50.114;8.662;2023-02-28T01:10:12;4.40;70.70
40702;DHT22;26387;50.114;8.662;2023-02-28T01:12:37;4.40;70.90
40702;DHT22;26387;50.114;8.662;2023-02-28T01:15:03;4.40;71.30
40702;DHT22;26387;50.114;8.662;2023-02-28T01:17:29;4.40;71.50
40702;DHT22;26387;50.114;8.662;2023-02-28T01:19:54;4.40;71.60
40702;DHT22;26387;50.114;8.662;2023-02-28T01:22:20;4.50;71.80
40702;DHT22;26387;50.114;8.662;2023-02-28T01:24:46;4.50;71.80
40702;DHT22;26387;50.114;8.662;2023-02-28T01:27:11;4.40;71.90
40702;DHT22;26387;50.114;8.662;2023-02-28T01:29:37;4.40;72.20
40702;DHT22;26387;50.114;8.662;2023-02-28T01:32:02;4.40;72.30
40702;DHT22;26387;50.114;8.662;2023-02-28T01:34:28;4.40;72.20
40702;DHT22;26387;50.114;8.662;2023-02-28T01:36:53;4.40;72.40
40702;DHT22;26387;50.114;8.662;2023-02-28T01:39:19;4.30;72.50
40702;DHT22;26387;50.114;8.662;2023-02-28T01:41:44;4.30;72.70
40702;DHT22;26387;50.114;8.662;2023-02-28T01:46:54;4.30;72.80
40702;DHT22;26387;50.114;8.662;2023-02-28T01:49:19;4.30;72.80
40702;DHT22;26387;50.114;8.662;2023-02-28T01:51:46;4.30;72.90
40702;DHT22;26387;50.114;8.662;2023-02-28T01:54:16;4.20;73.00
40702;DHT22;26387;50.114;8.662;2023-02-28T01:56:44;4.20;73.00
40702;DHT22;26387;50.114;8.662;2023-02-28T01:59:11;4.20;73.00
40702;DHT22;26387;50.114;8.662;2023-02-28T02:01:37;4.20;73.00
40702;DHT22;26387;50.114;8.662;2023-02-28T02:04:03;4.20;73.10
40702;DHT22;26387;50.114;8.662;2023-02-28T02:06:30;4.10;73.20
40702;DHT22;26387;50.114;8.662;2023-02-28T02:08:55;4.10;73.60
40702;DHT22;26387;50.114;8.662;2023-02-28T02:11:21;4.10;73.70
40702;DHT22;26387;50.114;8.662;2023-02-28T02:13:57;4.10;73.70
40702;DHT22;26387;50.114;8.662;2023-02-28T02:18:54;4.00;73.70
40702;DHT22;26387;50.114;8.662;2023-02-28T02:29:31;4.00;73.80
40702;DHT22;26387;50.114;8.662;2023-02-28T02:37:38;3.90;74.10
40702;DHT22;26387;50.114;8.662;2023-02-28T02:40:18;3.80;73.60
40702;DHT22;26387;50.114;8.662;2023-02-28T02:47:50;3.80;73.50
40702;DHT22;26387;50.114;8.662;2023-02-28T02:50:18;3.80;73.30
40702;DHT22;26387;50.114;8.662;2023-02-28T02:52:45;3.80;73.10
40702;DHT22;26387;50.114;8.662;2023-02-28T02:55:15;3.80;73.20
40702;DHT22;26387;50.114;8.662;2023-02-28T02:57:45;3.80;73.00
40702;DHT22;26387;50.114;8.662;2023-02-28T03:00:12;3.80;72.90
40702;DHT22;26387;50.114;8.662;2023-02-28T03:02:39;3.80;72.80
40702;DHT22;26387;50.114;8.662;2023-02-28T03:05:07;3.80;72.70
40702;DHT22;26387;50.114;8.662;2023-02-28T03:07:33;3.70;72.80
40702;DHT22;26387;50.114;8.662;2023-02-28T03:09:59;3.70;72.90
40702;DHT22;26387;50.114;8.662;2023-02-28T03:12:32;3.70;72.90
40702;DHT22;26387;50.114;8.662;2023-02-28T03:15:20;3.60;73.20
40702;DHT22;26387;50.114;8.662;2023-02-28T03:25:59;3.60;73.40
40702;DHT22;26387;50.114;8.662;2023-02-28T03:33:55;3.60;73.40
40702;DHT22;26387;50.114;8.662;2023-02-28T03:36:26;3.50;73.70
40702;DHT22;26387;50.114;8.662;2023-02-28T03:38:58;3.50;73.80
40702;DHT22;26387;50.114;8.662;2023-02-28T03:41:50;3.60;73.70
40702;DHT22;26387;50.114;8.662;2023-02-28T03:44:19;3.60;73.50
40702;DHT22;26387;50.114;8.662;2023-02-28T03:46:55;3.60;73.40
40702;DHT22;26387;50.114;8.662;2023-02-28T03:49:24;3.60;73.40
40702;DHT22;26387;50.114;8.662;2023-02-28T03:51:52;3.60;73.50
40702;DHT22;26387;50.114;8.662;2023-02-28T03:54:21;3.50;73.50
40702;DHT22;26387;50.114;8.662;2023-02-28T03:56:57;3.50;73.40
40702;DHT22;26387;50.114;8.662;2023-02-28T03:59:27;3.50;73.50
40702;DHT22;26387;50.114;8.662;2023-02-28T04:01:54;3.50;73.50
40702;DHT22;26387;50.114;8.662;2023-02-28T04:04:20;3.40;73.60
40702;DHT22;26387;50.114;8.662;2023-02-28T04:06:47;3.40;73.60
40702;DHT22;26387;50.114;8.662;2023-02-28T04:09:14;3.40;74.30
40702;DHT22;26387;50.114;8.662;2023-02-28T04:11:40;3.40;73.70
40702;DHT22;26387;50.114;8.662;2023-02-28T04:14:07;3.30;73.80
40702;DHT22;26387;50.114;8.662;2023-02-28T04:16:34;3.30;74.10
40702;DHT22;26387;50.114;8.662;2023-02-28T04:19:03;3.30;74.30
40702;DHT22;26387;50.114;8.662;2023-02-28T04:21:40;3.30;74.30
40702;DHT22;26387;50.114;8.662;2023-02-28T04:24:06;3.30;74.30
40702;DHT22;26387;50.114;8.662;2023-02-28T04:26:33;3.30;74.50
40702;DHT22;26387;50.114;8.662;2023-02-28T04:28:59;3.30;74.50
40702;DHT22;26387;50.114;8.662;2023-02-28T04:31:25;3.20;74.80
40702;DHT22;26387;50.114;8.662;2023-02-28T04:33:50;3.20;74.70
40702;DHT22;26387;50.114;8.662;2023-02-28T04:36:16;3.20;74.70
40702;DHT22;26387;50.114;8.662;2023-02-28T04:38:43;3.30;74.60
40702;DHT22;26387;50.114;8.662;2023-02-28T04:41:09;3.30;74.50
40702;DHT22;26387;50.114;8.662;2023-02-28T04:43:35;3.30;74.50
40702;DHT22;26387;50.114;8.662;2023-02-28T04:46:01;3.30;74.60
40702;DHT22;26387;50.114;8.662;2023-02-28T04:48:27;3.30;74.30
40702;DHT22;26387;50.114;8.662;2023-02-28T04:50:53;3.20;74.40
40702;DHT22;26387;50.114;8.662;2023-02-28T04:53:19;3.30;74.70
40702;DHT22;26387;50.114;8.662;2023-02-28T04:55:44;3.40;74.50
40702;DHT22;26387;50.114;8.662;2023-02-28T04:58:11;3.40;74.00
40702;DHT22;26387;50.114;8.662;2023-02-28T05:00:37;3.40;74.00
40702;DHT22;26387;50.114;8.662;2023-02-28T05:03:02;3.40;74.20
40702;DHT22;26387;50.114;8.662;2023-02-28T05:05:28;3.50;73.90
40702;DHT22;26387;50.114;8.662;2023-02-28T05:07:53;3.60;73.60
40702;DHT22;26387;50.114;8.662;2023-02-28T05:10:21;3.70;73.10
40702;DHT22;26387;50.114;8.662;2023-02-28T05:12:46;3.70;72.80
40702;DHT22;26387;50.114;8.662;2023-02-28T05:15:14;3.70;72.80
40702;DHT22;26387;50.114;8.662;2023-02-28T05:17:40;3.70;72.80
40702;DHT22;26387;50.114;8.662;2023-02-28T05:20:05;3.60;72.70
40702;DHT22;26387;50.114;8.662;2023-02-28T05:22:31;3.60;73.00
40702;DHT22;26387;50.114;8.662;2023-02-28T05:24:57;3.60;73.00
40702;DHT22;26387;50.114;8.662;2023-02-28T05:27:23;3.60;72.60
40702;DHT22;26387;50.114;8.662;2023-02-28T05:29:48;3.60;72.60
40702;DHT22;26387;50.114;8.662;2023-02-28T05:32:14;3.60;72.10
40702;DHT22;26387;50.114;8.662;2023-02-28T05:34:39;3.70;72.30
40702;DHT22;26387;50.114;8.662;2023-02-28T05:37:06;3.70;72.00
40702;DHT22;26387;50.114;8.662;2023-02-28T05:39:32;3.70;72.00
40702;DHT22;26387;50.114;8.662;2023-02-28T05:41:58;3.80;72.10
40702;DHT22;26387;50.114;8.662;2023-02-28T05:44:23;3.80;72.10
40702;DHT22;26387;50.114;8.662;2023-02-28T05:46:49;3.70;72.60
40702;DHT22;26387;50.114;8.662;2023-02-28T05:49:15;3.70;72.80
40702;DHT22;26387;50.114;8.662;2023-02-28T05:51:40;3.70;72.50
40702;DHT22;26387;50.114;8.662;2023-02-28T05:54:06;3.70;72.30
40702;DHT22;26387;50.114;8.662;2023-02-28T05:56:32;3.70;72.40
40702;DHT22;26387;50.114;8.662;2023-02-28T05:58:59;3.50;72.80
40702;DHT22;26387;50.114;8.662;2023-02-28T06:03:57;3.50;72.50
40702;DHT22;26387;50.114;8.662;2023-02-28T06:06:23;3.50;72.90
40702;DHT22;26387;50.114;8.662;2023-02-28T06:08:48;3.40;73.10
40702;DHT22;26387;50.114;8.662;2023-02-28T06:11:14;3.40;73.10
40702;DHT22;26387;50.114;8.662;2023-02-28T06:13:40;3.50;74.30
40702;DHT22;26387;50.114;8.662;2023-02-28T06:16:05;3.50;74.10
40702;DHT22;26387;50.114;8.662;2023-02-28T06:18:31;3.50;75.20
40702;DHT22;26387;50.114;8.662;2023-02-28T06:20:56;3.50;73.80
40702;DHT22;26387;50.114;8.662;2023-02-28T06:23:22;3.60;74.20
40702;DHT22;26387;50.114;8.662;2023-02-28T06:25:47;3.70;73.70
40702;DHT22;26387;50.114;8.662;2023-02-28T06:28:14;3.70;73.40
40702;DHT22;26387;50.114;8.662;2023-02-28T06:30:40;3.70;73.20
40702;DHT22;26387;50.114;8.662;2023-02-28T06:33:05;3.80;73.00
40702;DHT22;26387;50.114;8.662;2023-02-28T06:35:31;3.80;72.20
40702;DHT22;26387;50.114;8.662;2023-02-28T06:37:56;3.80;72.10
40702;DHT22;26387;50.114;8.662;2023-02-28T06:40:22;3.90;72.10
40702;DHT22;26387;50.114;8.662;2023-02-28T06:42:47;3.90;71.70
40702;DHT22;26387;50.114;8.662;2023-02-28T06:45:13;4.00;71.40
40702;DHT22;26387;50.114;8.662;2023-02-28T06:47:39;4.00;71.30
40702;DHT22;26387;50.114;8.662;2023-02-28T06:50:05;4.00;71.10
40702;DHT22;26387;50.114;8.662;2023-02-28T06:52:31;4.10;70.70
40702;DHT22;26387;50.114;8.662;2023-02-28T06:54:56;4.10;70.50
40702;DHT22;26387;50.114;8.662;2023-02-28T06:57:27;4.10;70.60
40702;DHT22;26387;50.114;8.662;2023-02-28T06:59:52;4.20;70.30
40702;DHT22;26387;50.114;8.662;2023-02-28T07:02:18;4.20;70.00
40702;DHT22;26387;50.114;8.662;2023-02-28T07:04:43;4.20;69.80
40702;DHT22;26387;50.114;8.662;2023-02-28T07:07:09;4.10;69.80
40702;DHT22;26387;50.114;8.662;2023-02-28T07:09:35;4.00;70.00
40702;DHT22;26387;50.114;8.662;2023-02-28T07:12:00;4.00;70.00
40702;DHT22;26387;50.114;8.662;2023-02-28T07:14:26;4.00;70.00
40702;DHT22;26387;50.114;8.662;2023-02-28T07:16:51;4.00;70.20
40702;DHT22;26387;50.114;8.662;2023-02-28T07:19:17;3.90;70.30
40702;DHT22;26387;50.114;8.662;2023-02-28T07:21:42;3.90;69.90
40702;DHT22;26387;50.114;8.662;2023-02-28T07:27:11;3.90;70.10
40702;DHT22;26387;50.114;8.662;2023-02-28T07:29:37;3.90;69.90
40702;DHT22;26387;50.114;8.662;2023-02-28T07:32:03;3.90;70.00
40702;DHT22;26387;50.114;8.662;2023-02-28T07:34:29;3.90;70.00
40702;DHT22;26387;50.114;8.662;2023-02-28T07:36:54;3.90;69.80
40702;DHT22;26387;50.114;8.662;2023-02-28T07:39:20;4.00;69.80
40702;DHT22;26387;50.114;8.662;2023-02-28T07:41:46;4.10;69.70
40702;DHT22;26387;50.114;8.662;2023-02-28T07:44:11;4.10;71.70
40702;DHT22;26387;50.114;8.662;2023-02-28T07:46:37;4.10;70.10
40702;DHT22;26387;50.114;8.662;2023-02-28T07:49:03;4.10;70.70
40702;DHT22;26387;50.114;8.662;2023-02-28T07:51:29;4.20;69.30
40702;DHT22;26387;50.114;8.662;2023-02-28T07:53:55;4.20;69.20
40702;DHT22;26387;50.114;8.662;2023-02-28T07:56:20;4.30;69.10
40702;DHT22;26387;50.114;8.662;2023-02-28T07:58:46;4.40;68.60
40702;DHT22;26387;50.114;8.662;2023-02-28T08:01:12;4.40;68.40
40702;DHT22;26387;50.114;8.662;2023-02-28T08:03:39;4.50;68.40
40702;DHT22;26387;50.114;8.662;2023-02-28T08:06:05;4.50;68.00
40702;DHT22;26387;50.114;8.662;2023-02-28T08:08:31;4.60;67.60
40702;DHT22;26387;50.114;8.662;2023-02-28T08:11:02;4.50;67.40
40702;DHT22;26387;50.114;8.662;2023-02-28T08:13:29;4.60;67.20
40702;DHT22;26387;50.114;8.662;2023-02-28T08:15:54;4.60;66.70
40702;DHT22;26387;50.114;8.662;2023-02-28T08:18:21;4.60;66.40
40702;DHT22;26387;50.114;8.662;2023-02-28T08:47:35;4.70;65.80
40702;DHT22;26387;50.114;8.662;2023-02-28T08:50:00;5.60;60.10
40702;DHT22;26387;50.114;8.662;2023-02-28T08:59:43;5.80;58.60
40702;DHT22;26387;50.114;8.662;2023-02-28T09:02:11;6.00;58.70
40702;DHT22;26387;50.114;8.662;2023-02-28T09:07:03;6.00;59.00
40702;DHT22;26387;50.114;8.662;2023-02-28T09:09:29;6.30;57.70
40702;DHT22;26387;50.114;8.662;2023-02-28T09:11:57;6.30;57.70
40702;DHT22;26387;50.114;8.662;2023-02-28T09:14:23;6.10;57.20
40702;DHT22;26387;50.114;8.662;2023-02-28T09:16:48;6.20;57.60
40702;DHT22;26387;50.114;8.662;2023-02-28T10:24:58;7.80;52.90
40702;DHT22;26387;50.114;8.662;2023-02-28T10:27:31;7.60;51.60
40702;DHT22;26387;50.114;8.662;2023-02-28T10:29:58;7.50;52.20
40702;DHT22;26387;50.114;8.662;2023-02-28T10:32:28;7.50;52.10
40702;DHT22;26387;50.114;8.662;2023-02-28T10:34:57;7.50;52.00
40702;DHT22;26387;50.114;8.662;2023-02-28T10:37:23;7.50;51.90
40702;DHT22;26387;50.114;8.662;2023-02-28T10:39:49;7.60;51.60
40702;DHT22;26387;50.114;8.662;2023-02-28T10:42:22;7.50;50.90
40702;DHT22;26387;50.114;8.662;2023-02-28T10:45:04;7.50;51.50
40702;DHT22;26387;50.114;8.662;2023-02-28T10:47:29;7.60;51.30
40702;DHT22;26387;50.114;8.662;2023-02-28T10:49:55;7.90;51.20
40702;DHT22;26387;50.114;8.662;2023-02-28T10:52:35;8.00;50.60
40702;DHT22;26387;50.114;8.662;2023-02-28T10:55:19;8.00;50.50
40702;DHT22;26387;50.114;8.662;2023-02-28T10:57:46;8.20;50.70
40702;DHT22;26387;50.114;8.662;2023-02-28T11:00:20;8.20;50.00
40702;DHT22;26387;50.114;8.662;2023-02-28T11:02:46;8.10;49.80
40702;DHT22;26387;50.114;8.662;2023-02-28T11:39:19;8.60;48.30
40702;DHT22;26387;50.114;8.662;2023-02-28T11:47:24;8.20;49.40
40702;DHT22;26387;50.114;8.662;2023-02-28T11:49:49;8.30;49.20
40702;DHT22;26387;50.114;8.662;2023-02-28T11:52:20;8.40;49.30
40702;DHT22;26387;50.114;8.662;2023-02-28T11:54:50;8.20;49.50
40702;DHT22;26387;50.114;8.662;2023-02-28T11:59:58;8.10;50.10
40702;DHT22;26387;50.114;8.662;2023-02-28T12:07:59;8.20;50.20
40702;DHT22;26387;50.114;8.662;2023-02-28T12:10:29;8.30;49.80
40702;DHT22;26387;50.114;8.662;2023-02-28T12:15:54;8.00;50.10
40702;DHT22;26387;50.114;8.662;2023-02-28T12:21:01;8.10;50.20
40702;DHT22;26387;50.114;8.662;2023-02-28T12:23:48;8.10;50.60
40702;DHT22;26387;50.114;8.662;2023-02-28T12:29:04;8.30;49.20
40702;DHT22;26387;50.114;8.662;2023-02-28T12:43:45;8.40;49.30
40702;DHT22;26387;50.114;8.662;2023-02-28T13:10:41;11.20;44.90
40702;DHT22;26387;50.114;8.662;2023-02-28T13:13:11;11.70;46.50
40702;DHT22;26387;50.114;8.662;2023-02-28T13:15:38;11.80;44.40
40702;DHT22;26387;50.114;8.662;2023-02-28T13:18:20;11.80;44.90
40702;DHT22;26387;50.114;8.662;2023-02-28T13:20:51;11.80;44.30
40702;DHT22;26387;50.114;8.662;2023-02-28T13:23:37;12.00;45.60
40702;DHT22;26387;50.114;8.662;2023-02-28T13:26:03;12.30;44.40
40702;DHT22;26387;50.114;8.662;2023-02-28T13:31:13;12.60;44.10
40702;DHT22;26387;50.114;8.662;2023-02-28T14:17:36;14.30;42.50
40702;DHT22;26387;50.114;8.662;2023-02-28T14:51:49;16.50;32.90
40702;DHT22;26387;50.114;8.662;2023-02-28T14:54:15;14.70;36.00
40702;DHT22;26387;50.114;8.662;2023-02-28T15:04:43;12.80;38.50
40702;DHT22;26387;50.114;8.662;2023-02-28T15:07:09;12.60;38.90
40702;DHT22;26387;50.114;8.662;2023-02-28T15:09:35;12.30;39.40
40702;DHT22;26387;50.114;8.662;2023-02-28T15:14:26;12.10;39.90
40702;DHT22;26387;50.114;8.662;2023-02-28T15:16:57;11.60;40.70
40702;DHT22;26387;50.114;8.662;2023-02-28T15:19:26;11.40;41.00
40702;DHT22;26387;50.114;8.662;2023-02-28T15:21:58;11.40;41.30
40702;DHT22;26387;50.114;8.662;2023-02-28T15:24:35;11.20;41.80
40702;DHT22;26387;50.114;8.662;2023-02-28T15:27:10;11.00;41.80
40702;DHT22;26387;50.114;8.662;2023-02-28T15:29:44;10.70;42.20
40702;DHT22;26387;50.114;8.662;2023-02-28T15:34:54;10.60;43.00
40702;DHT22;26387;50.114;8.662;2023-02-28T15:39:53;10.40;43.20
40702;DHT22;26387;50.114;8.662;2023-02-28T15:42:19;10.40;43.50
40702;DHT22;26387;50.114;8.662;2023-02-28T15:44:45;10.20;43.60
40702;DHT22;26387;50.114;8.662;2023-02-28T15:47:17;10.10;43.90
40702;DHT22;26387;50.114;8.662;2023-02-28T15:52:13;10.00;44.50
40702;DHT22;26387;50.114;8.662;2023-02-28T15:54:40;9.90;44.40
40702;DHT22;26387;50.114;8.662;2023-02-28T15:57:10;9.80;44.70
40702;DHT22;26387;50.114;8.662;2023-02-28T15:59:38;9.80;45.00
40702;DHT22;26387;50.114;8.662;2023-02-28T16:02:15;9.80;44.90
40702;DHT22;26387;50.114;8.662;2023-02-28T16:07:27;9.80;45.00
40702;DHT22;26387;50.114;8.662;2023-02-28T16:09:53;9.80;45.00
40702;DHT22;26387;50.114;8.662;2023-02-28T16:12:19;9.60;45.30
40702;DHT22;26387;50.114;8.662;2023-02-28T16:14:45;9.60;45.70
40702;DHT22;26387;50.114;8.662;2023-02-28T16:17:22;9.50;45.70
40702;DHT22;26387;50.114;8.662;2023-02-28T16:19:48;9.60;45.80
40702;DHT22;26387;50.114;8.662;2023-02-28T16:22:14;9.40;46.20
40702;DHT22;26387;50.114;8.662;2023-02-28T16:24:39;9.50;46.40
40702;DHT22;26387;50.114;8.662;2023-02-28T16:27:05;9.50;46.40
40702;DHT22;26387;50.114;8.662;2023-02-28T16:29:32;9.50;46.80
40702;DHT22;26387;50.114;8.662;2023-02-28T16:31:58;9.50;46.90
40702;DHT22;26387;50.114;8.662;2023-02-28T16:34:25;9.40;46.90
40702;DHT22;26387;50.114;8.662;2023-02-28T16:36:51;9.30;47.30
40702;DHT22;26387;50.114;8.662;2023-02-28T16:39:16;9.10;47.40
40702;DHT22;26387;50.114;8.662;2023-02-28T16:41:43;9.10;47.40
40702;DHT22;26387;50.114;8.662;2023-02-28T16:44:12;9.00;47.40
40702;DHT22;26387;50.114;8.662;2023-02-28T16:46:38;9.00;47.50
40702;DHT22;26387;50.114;8.662;2023-02-28T16:49:04;8.80;47.50
40702;DHT22;26387;50.114;8.662;2023-02-28T16:51:29;8.70;47.80
40702;DHT22;26387;50.114;8.662;2023-02-28T16:53:55;8.60;48.00
40702;DHT22;26387;50.114;8.662;2023-02-28T16:56:21;8.50;48.30
40702;DHT22;26387;50.114;8.662;2023-02-28T16:58:48;8.40;48.60
40702;DHT22;26387;50.114;8.662;2023-02-28T17:01:14;8.30;48.70
40702;DHT22;26387;50.114;8.662;2023-02-28T17:03:39;8.40;49.00
40702;DHT22;26387;50.114;8.662;2023-02-28T17:06:06;8.30;48.90
40702;DHT22;26387;50.114;8.662;2023-02-28T17:08:37;8.20;49.10
40702;DHT22;26387;50.114;8.662;2023-02-28T17:11:03;8.10;49.10
40702;DHT22;26387;50.114;8.662;2023-02-28T17:13:29;8.10;49.20
40702;DHT22;26387;50.114;8.662;2023-02-28T17:15:55;8.10;49.50
40702;DHT22;26387;50.114;8.662;2023-02-28T17:18:20;8.00;49.50
40702;DHT22;26387;50.114;8.662;2023-02-28T17:20:46;8.00;49.60
40702;DHT22;26387;50.114;8.662;2023-02-28T17:23:12;7.90;49.80
40702;DHT22;26387;50.114;8.662;2023-02-28T17:25:37;7.80;49.80
40702;DHT22;26387;50.114;8.662;2023-02-28T17:28:03;7.80;50.00
40702;DHT22;26387;50.114;8.662;2023-02-28T17:30:29;7.70;50.00
40702;DHT22;26387;50.114;8.662;2023-02-28T17:32:55;7.70;50.30
40702;DHT22;26387;50.114;8.662;2023-02-28T17:35:21;7.60;50.50
40702;DHT22;26387;50.114;8.662;2023-02-28T17:37:46;7.60;50.40
40702;DHT22;26387;50.114;8.662;2023-02-28T17:40:13;7.50;50.60
40702;DHT22;26387;50.114;8.662;2023-02-28T17:42:39;7.50;50.90
40702;DHT22;26387;50.114;8.662;2023-02-28T17:45:05;7.50;51.10
40702;DHT22;26387;50.114;8.662;2023-02-28T17:47:30;7.50;51.10
40702;DHT22;26387;50.114;8.662;2023-02-28T17:49:56;7.50;51.10
40702;DHT22;26387;50.114;8.662;2023-02-28T17:52:21;7.50;51.10
40702;DHT22;26387;50.114;8.662;2023-02-28T17:54:47;7.50;51.10
40702;DHT22;26387;50.114;8.662;2023-02-28T17:57:16;7.40;51.20
40702;DHT22;26387;50.114;8.662;2023-02-28T17:59:41;7.40;51.40
40702;DHT22;26387;50.114;8.662;2023-02-28T18:02:08;7.40;51.60
40702;DHT22;26387;50.114;8.662;2023-02-28T18:04:34;7.30;51.70
40702;DHT22;26387;50.114;8.662;2023-02-28T18:06:59;7.30;51.50
40702;DHT22;26387;50.114;8.662;2023-02-28T18:09:25;7.30;51.70
40702;DHT22;26387;50.114;8.662;2023-02-28T18:11:52;7.20;51.80
40702;DHT22;26387;50.114;8.662;2023-02-28T18:14:18;7.30;51.80
40702;DHT22;26387;50.114;8.662;2023-02-28T18:16:44;7.30;52.00
40702;DHT22;26387;50.114;8.662;2023-02-28T18:19:10;7.30;52.10
40702;DHT22;26387;50.114;8.662;2023-02-28T18:21:40;7.30;52.10
40702;DHT22;26387;50.114;8.662;2023-02-28T18:24:06;7.30;52.50
40702;DHT22;26387;50.114;8.662;2023-02-28T18:26:31;7.20;52.50
40702;DHT22;26387;50.114;8.662;2023-02-28T18:28:57;7.20;52.70
40702;DHT22;26387;50.114;8.662;2023-02-28T18:31:22;7.10;52.90
40702;DHT22;26387;50.114;8.662;2023-02-28T18:33:49;7.10;53.30
40702;DHT22;26387;50.114;8.662;2023-02-28T18:36:14;7.00;53.30
40702;DHT22;26387;50.114;8.662;2023-02-28T18:38:40;7.00;53.50
40702;DHT22;26387;50.114;8.662;2023-02-28T18:41:06;7.00;53.70
40702;DHT22;26387;50.114;8.662;2023-02-28T18:43:33;7.00;53.80
40702;DHT22;26387;50.114;8.662;2023-02-28T18:46:09;7.00;53.80
40702;DHT22;26387;50.114;8.662;2023-02-28T18:48:35;6.90;54.20
40702;DHT22;26387;50.114;8.662;2023-02-28T18:51:11;6.90;54.30
40702;DHT22;26387;50.114;8.662;2023-02-28T18:53:37;6.90;54.50
40702;DHT22;26387;50.114;8.662;2023-02-28T18:56:03;6.80;54.60
40702;DHT22;26387;50.114;8.662;2023-02-28T18:58:29;6.80;54.60
40702;DHT22;26387;50.114;8.662;2023-02-28T19:00:55;6.80;54.70
40702;DHT22;26387;50.114;8.662;2023-02-28T19:03:20;6.80;54.90
40702;DHT22;26387;50.114;8.662;2023-02-28T19:05:46;6.70;55.10
40702;DHT22;26387;50.114;8.662;2023-02-28T19:08:11;6.70;55.20
40702;DHT22;26387;50.114;8.662;2023-02-28T19:10:38;6.60;55.50
40702;DHT22;26387;50.114;8.662;2023-02-28T19:13:04;6.50;55.40
40702;DHT22;26387;50.114;8.662;2023-02-28T19:15:30;6.60;55.50
40702;DHT22;26387;50.114;8.662;2023-02-28T19:17:56;6.60;55.60
40702;DHT22;26387;50.114;8.662;2023-02-28T19:20:21;6.50;55.90
40702;DHT22;26387;50.114;8.662;2023-02-28T19:22:47;6.50;56.00
40702;DHT22;26387;50.114;8.662;2023-02-28T19:25:12;6.50;56.00
40702;DHT22;26387;50.114;8.662;2023-02-28T19:27:38;6.50;56.00
40702;DHT22;26387;50.114;8.662;2023-02-28T19:30:03;6.50;56.10
40702;DHT22;26387;50.114;8.662;2023-02-28T19:32:30;6.40;56.30
40702;DHT22;26387;50.114;8.662;2023-02-28T19:34:56;6.50;56.30
40702;DHT22;26387;50.114;8.662;2023-02-28T19:37:24;6.40;56.20
40702;DHT22;26387;50.114;8.662;2023-02-28T19:39:50;6.40;56.50
40702;DHT22;26387;50.114;8.662;2023-02-28T19:42:18;6.30;57.20
40702;DHT22;26387;50.114;8.662;2023-02-28T19:44:44;6.30;56.90
40702;DHT22;26387;50.114;8.662;2023-02-28T19:47:10;6.30;56.90
40702;DHT22;26387;50.114;8.662;2023-02-28T19:49:35;6.30;57.00
40702;DHT22;26387;50.114;8.662;2023-02-28T19:52:01;6.30;57.00
40702;DHT22;26387;50.114;8.662;2023-02-28T19:54:27;6.20;57.10
40702;DHT22;26387;50.114;8.662;2023-02-28T19:56:52;6.20;57.30
40702;DHT22;26387;50.114;8.662;2023-02-28T19:59:26;6.20;57.50
40702;DHT22;26387;50.114;8.662;2023-02-28T20:01:52;6.20;57.50
40702;DHT22;26387;50.114;8.662;2023-02-28T20:04:21;6.20;57.60
40702;DHT22;26387;50.114;8.662;2023-02-28T20:06:47;6.20;57.60
40702;DHT22;26387;50.114;8.662;2023-02-28T20:09:12;6.10;57.80
40702;DHT22;26387;50.114;8.662;2023-02-28T20:11:38;6.10;57.80
40702;DHT22;26387;50.114;8.662;2023-02-28T20:14:03;6.00;58.00
40702;DHT22;26387;50.114;8.662;2023-02-28T20:16:30;6.00;58.40
40702;DHT22;26387;50.114;8.662;2023-02-28T20:18:55;6.00;58.40
40702;DHT22;26387;50.114;8.662;2023-02-28T20:21:21;5.90;58.40
40702;DHT22;26387;50.114;8.662;2023-02-28T20:23:47;5.90;58.40
40702;DHT22;26387;50.114;8.662;2023-02-28T20:26:13;5.90;58.50
40702;DHT22;26387;50.114;8.662;2023-02-28T20:28:39;5.90;58.50
40702;DHT22;26387;50.114;8.662;2023-02-28T20:33:38;5.80;59.20
40702;DHT22;26387;50.114;8.662;2023-02-28T20:36:04;5.70;59.50
40702;DHT22;26387;50.114;8.662;2023-02-28T20:38:29;5.70;59.80
40702;DHT22;26387;50.114;8.662;2023-02-28T20:40:59;5.70;59.60
40702;DHT22;26387;50.114;8.662;2023-02-28T20:43:24;5.70;59.90
40702;DHT22;26387;50.114;8.662;2023-02-28T20:45:51;5.70;59.60
40702;DHT22;26387;50.114;8.662;2023-02-28T20:48:16;5.70;59.70
40702;DHT22;26387;50.114;8.662;2023-02-28T20:50:47;5.80;59.70
40702;DHT22;26387;50.114;8.662;2023-02-28T20:53:12;5.80;59.70
40702;DHT22;26387;50.114;8.662;2023-02-28T20:55:38;5.70;59.70
40702;DHT22;26387;50.114;8.662;2023-02-28T20:58:03;5.70;59.80
40702;DHT22;26387;50.114;8.662;2023-02-28T21:00:29;5.70;60.10
40702;DHT22;26387;50.114;8.662;2023-02-28T21:02:54;5.70;60.20
40702;DHT22;26387;50.114;8.662;2023-02-28T21:05:20;5.60;60.30
40702;DHT22;26387;50.114;8.662;2023-02-28T21:07:45;5.60;60.50
40702;DHT22;26387;50.114;8.662;2023-02-28T21:10:10;5.60;60.80
40702;DHT22;26387;50.114;8.662;2023-02-28T21:12:36;5.50;61.20
40702;DHT22;26387;50.114;8.662;2023-02-28T21:15:01;5.40;61.40
40702;DHT22;26387;50.114;8.662;2023-02-28T21:17:27;5.40;61.10
40702;DHT22;26387;50.114;8.662;2023-02-28T21:19:53;5.40;61.40
40702;DHT22;26387;50.114;8.662;2023-02-28T21:22:18;5.30;61.70
40702;DHT22;26387;50.114;8.662;2023-02-28T21:24:44;5.40;61.80